sensor_id;sensor_type;location;lat;lon;timestamp;P1;durP1;ratioP1;P2;durP2;ratioP2
16272;SDS011;8244;50.044;9.006;2023-02-15T00:02:24;31.10;;;16.40;;
16272;SDS011;8244;50.044;9.006;2023-02-15T00:07:26;29.80;;;16.03;;
16272;SDS011;8244;50.044;9.006;2023-02-15T00:12:28;30.73;;;16.13;;
16272;SDS011;8244;50.044;9.006;2023-02-15T00:17:31;31.43;;;15.23;;
16272;SDS011;8244;50.044;9.006;2023-02-15T00:22:32;32.57;;;15.90;;
16272;SDS011;8244;50.044;9.006;2023-02-15T00:27:34;33.37;;;16.67;;
16272;SDS011;8244;50.044;9.006;2023-02-15T00:32:37;34.83;;;18.20;;
16272;SDS011;8244;50.044;9.006;2023-02-15T00:37:38;33.37;;;17.20;;
16272;SDS011;8244;50.044;9.006;2023-02-15T00:42:40;35.53;;;18.23;;
16272;SDS011;8244;50.044;9.006;2023-02-15T00:47:43;37.13;;;17.37;;
16272;SDS011;8244;50.044;9.006;2023-02-15T00:52:45;34.23;;;17.30;;
16272;SDS011;8244;50.044;9.006;2023-02-15T00:57:46;35.40;;;17.50;;
16272;SDS011;8244;50.044;9.006;2023-02-15T01:02:49;33.63;;;17.33;;
16272;SDS011;8244;50.044;9.006;2023-02-15T01:07:51;38.70;;;18.33;;
16272;SDS011;8244;50.044;9.006;2023-02-15T01:12:53;38.33;;;17.53;;
16272;SDS011;8244;50.044;9.006;2023-02-15T01:17:57;33.63;;;17.10;;
16272;SDS011;8244;50.044;9.006;2023-02-15T01:22:58;37.70;;;18.10;;
16272;SDS011;8244;50.044;9.006;2023-02-15T01:28:00;33.77;;;17.53;;
16272;SDS011;8244;50.044;9.006;2023-02-15T01:33:03;37.93;;;17.73;;
16272;SDS011;8244;50.044;9.006;2023-02-15T01:38:05;37.03;;;17.63;;
16272;SDS011;8244;50.044;9.006;2023-02-15T01:43:09;39.70;;;18.10;;
16272;SDS011;8244;50.044;9.006;2023-02-15T01:48:15;39.97;;;18.60;;
16272;SDS011;8244;50.044;9.006;2023-02-15T01:53:24;41.60;;;18.60;;
16272;SDS011;8244;50.044;9.006;2023-02-15T01:58:28;39.37;;;18.30;;
16272;SDS011;8244;50.044;9.006;2023-02-15T02:03:36;33.93;;;17.73;;
16272;SDS011;8244;50.044;9.006;2023-02-15T02:08:43;37.33;;;18.07;;
16272;SDS011;8244;50.044;9.006;2023-02-15T02:13:46;37.93;;;18.30;;
16272;SDS011;8244;50.044;9.006;2023-02-15T02:18:53;40.67;;;19.20;;
16272;SDS011;8244;50.044;9.006;2023-02-15T02:35:40;35.77;;;17.13;;
16272;SDS011;8244;50.044;9.006;2023-02-15T02:40:51;34.97;;;17.33;;
16272;SDS011;8244;50.044;9.006;2023-02-15T02:46:00;36.93;;;17.70;;
16272;SDS011;8244;50.044;9.006;2023-02-15T02:51:09;35.70;;;16.93;;
16272;SDS011;8244;50.044;9.006;2023-02-15T02:56:13;35.73;;;18.27;;
16272;SDS011;8244;50.044;9.006;2023-02-15T03:01:23;35.23;;;16.90;;
16272;SDS011;8244;50.044;9.006;2023-02-15T03:06:30;37.63;;;18.10;;
16272;SDS011;8244;50.044;9.006;2023-02-15T03:11:36;37.60;;;17.70;;
16272;SDS011;8244;50.044;9.006;2023-02-15T03:16:39;38.23;;;17.97;;
16272;SDS011;8244;50.044;9.006;2023-02-15T03:21:44;34.17;;;16.93;;
16272;SDS011;8244;50.044;9.006;2023-02-15T03:26:50;32.93;;;17.73;;
16272;SDS011;8244;50.044;9.006;2023-02-15T03:31:53;37.03;;;17.67;;
16272;SDS011;8244;50.044;9.006;2023-02-15T03:37:04;33.53;;;17.40;;
16272;SDS011;8244;50.044;9.006;2023-02-15T03:42:12;43.13;;;20.27;;
16272;SDS011;8244;50.044;9.006;2023-02-15T03:47:19;41.23;;;19.73;;
16272;SDS011;8244;50.044;9.006;2023-02-15T03:52:25;38.17;;;19.57;;
16272;SDS011;8244;50.044;9.006;2023-02-15T03:57:29;38.23;;;18.70;;
16272;SDS011;8244;50.044;9.006;2023-02-15T04:02:52;39.63;;;18.43;;
16272;SDS011;8244;50.044;9.006;2023-02-15T04:08:04;41.27;;;19.70;;
16272;SDS011;8244;50.044;9.006;2023-02-15T04:13:06;41.40;;;19.87;;
16272;SDS011;8244;50.044;9.006;2023-02-15T04:18:08;41.00;;;20.33;;
16272;SDS011;8244;50.044;9.006;2023-02-15T04:23:11;41.27;;;19.67;;
16272;SDS011;8244;50.044;9.006;2023-02-15T04:28:30;40.47;;;20.33;;
16272;SDS011;8244;50.044;9.006;2023-02-15T04:33:32;42.83;;;20.03;;
16272;SDS011;8244;50.044;9.006;2023-02-15T04:38:37;41.07;;;19.57;;
16272;SDS011;8244;50.044;9.006;2023-02-15T04:43:38;43.97;;;21.50;;
16272;SDS011;8244;50.044;9.006;2023-02-15T04:48:40;34.27;;;17.77;;
16272;SDS011;8244;50.044;9.006;2023-02-15T04:53:43;38.20;;;18.37;;
16272;SDS011;8244;50.044;9.006;2023-02-15T04:58:44;39.90;;;19.00;;
16272;SDS011;8244;50.044;9.006;2023-02-15T05:03:47;42.40;;;19.37;;
16272;SDS011;8244;50.044;9.006;2023-02-15T05:08:50;38.87;;;19.13;;
16272;SDS011;8244;50.044;9.006;2023-02-15T05:13:51;38.50;;;18.20;;
16272;SDS011;8244;50.044;9.006;2023-02-15T05:18:53;43.80;;;20.07;;
16272;SDS011;8244;50.044;9.006;2023-02-15T05:23:56;39.27;;;19.53;;
16272;SDS011;8244;50.044;9.006;2023-02-15T05:28:57;42.73;;;20.07;;
16272;SDS011;8244;50.044;9.006;2023-02-15T05:33:59;44.30;;;20.60;;
16272;SDS011;8244;50.044;9.006;2023-02-15T05:39:02;38.97;;;18.80;;
16272;SDS011;8244;50.044;9.006;2023-02-15T05:44:05;42.43;;;19.47;;
16272;SDS011;8244;50.044;9.006;2023-02-15T05:49:07;41.93;;;19.30;;
16272;SDS011;8244;50.044;9.006;2023-02-15T05:54:10;40.20;;;18.67;;
16272;SDS011;8244;50.044;9.006;2023-02-15T05:59:12;38.17;;;18.67;;
16272;SDS011;8244;50.044;9.006;2023-02-15T06:04:13;36.57;;;17.93;;
16272;SDS011;8244;50.044;9.006;2023-02-15T06:09:16;36.93;;;17.43;;
16272;SDS011;8244;50.044;9.006;2023-02-15T06:14:19;37.43;;;17.97;;
16272;SDS011;8244;50.044;9.006;2023-02-15T06:19:21;37.57;;;18.17;;
16272;SDS011;8244;50.044;9.006;2023-02-15T06:24:24;37.13;;;18.50;;
16272;SDS011;8244;50.044;9.006;2023-02-15T06:29:26;38.23;;;18.60;;
16272;SDS011;8244;50.044;9.006;2023-02-15T06:34:27;38.50;;;18.13;;
16272;SDS011;8244;50.044;9.006;2023-02-15T06:39:30;35.90;;;17.67;;
16272;SDS011;8244;50.044;9.006;2023-02-15T06:44:32;36.17;;;17.57;;
16272;SDS011;8244;50.044;9.006;2023-02-15T06:49:34;36.23;;;17.27;;
16272;SDS011;8244;50.044;9.006;2023-02-15T06:54:37;39.20;;;17.77;;
16272;SDS011;8244;50.044;9.006;2023-02-15T06:59:39;33.87;;;17.30;;
16272;SDS011;8244;50.044;9.006;2023-02-15T07:04:40;39.00;;;18.17;;
16272;SDS011;8244;50.044;9.006;2023-02-15T07:09:43;35.23;;;17.23;;
16272;SDS011;8244;50.044;9.006;2023-02-15T07:14:45;34.40;;;16.93;;
16272;SDS011;8244;50.044;9.006;2023-02-15T07:19:47;34.33;;;17.03;;
16272;SDS011;8244;50.044;9.006;2023-02-15T07:24:50;39.80;;;18.77;;
16272;SDS011;8244;50.044;9.006;2023-02-15T07:29:54;37.20;;;18.23;;
16272;SDS011;8244;50.044;9.006;2023-02-15T07:34:56;37.77;;;18.07;;
16272;SDS011;8244;50.044;9.006;2023-02-15T07:39:59;34.07;;;16.60;;
16272;SDS011;8244;50.044;9.006;2023-02-15T07:45:00;36.50;;;18.47;;
16272;SDS011;8244;50.044;9.006;2023-02-15T07:50:02;39.57;;;18.27;;
16272;SDS011;8244;50.044;9.006;2023-02-15T07:55:06;36.97;;;17.30;;
16272;SDS011;8244;50.044;9.006;2023-02-15T08:00:09;42.87;;;20.27;;
16272;SDS011;8244;50.044;9.006;2023-02-15T08:05:12;41.00;;;19.40;;
16272;SDS011;8244;50.044;9.006;2023-02-15T08:10:15;44.47;;;22.13;;
16272;SDS011;8244;50.044;9.006;2023-02-15T08:15:37;48.70;;;21.97;;
16272;SDS011;8244;50.044;9.006;2023-02-15T08:20:38;47.57;;;21.63;;
16272;SDS011;8244;50.044;9.006;2023-02-15T08:25:41;49.13;;;22.60;;
16272;SDS011;8244;50.044;9.006;2023-02-15T08:30:43;49.50;;;21.93;;
16272;SDS011;8244;50.044;9.006;2023-02-15T08:35:44;48.73;;;21.20;;
16272;SDS011;8244;50.044;9.006;2023-02-15T08:40:48;44.97;;;21.23;;
16272;SDS011;8244;50.044;9.006;2023-02-15T08:45:49;40.77;;;19.20;;
16272;SDS011;8244;50.044;9.006;2023-02-15T08:50:51;41.17;;;20.27;;
16272;SDS011;8244;50.044;9.006;2023-02-15T08:55:57;39.43;;;20.10;;
16272;SDS011;8244;50.044;9.006;2023-02-15T09:00:59;36.17;;;18.03;;
16272;SDS011;8244;50.044;9.006;2023-02-15T09:06:02;36.67;;;17.67;;
16272;SDS011;8244;50.044;9.006;2023-02-15T09:11:09;35.40;;;17.47;;
16272;SDS011;8244;50.044;9.006;2023-02-15T09:16:12;34.33;;;17.73;;
16272;SDS011;8244;50.044;9.006;2023-02-15T09:21:17;31.73;;;17.00;;
16272;SDS011;8244;50.044;9.006;2023-02-15T09:26:21;34.57;;;17.37;;
16272;SDS011;8244;50.044;9.006;2023-02-15T09:31:25;33.07;;;16.33;;
16272;SDS011;8244;50.044;9.006;2023-02-15T09:36:28;34.20;;;17.77;;
16272;SDS011;8244;50.044;9.006;2023-02-15T09:41:40;33.70;;;17.80;;
16272;SDS011;8244;50.044;9.006;2023-02-15T09:47:10;30.20;;;17.83;;
16272;SDS011;8244;50.044;9.006;2023-02-15T09:52:33;35.77;;;19.20;;
16272;SDS011;8244;50.044;9.006;2023-02-15T09:57:50;32.43;;;18.77;;
16272;SDS011;8244;50.044;9.006;2023-02-15T10:03:10;38.47;;;20.33;;
16272;SDS011;8244;50.044;9.006;2023-02-15T10:08:32;37.30;;;19.60;;
16272;SDS011;8244;50.044;9.006;2023-02-15T10:13:48;33.83;;;18.90;;
16272;SDS011;8244;50.044;9.006;2023-02-15T10:19:00;35.20;;;19.37;;
16272;SDS011;8244;50.044;9.006;2023-02-15T10:24:13;33.83;;;19.50;;
16272;SDS011;8244;50.044;9.006;2023-02-15T10:29:34;32.97;;;17.43;;
16272;SDS011;8244;50.044;9.006;2023-02-15T10:34:38;32.10;;;19.50;;
16272;SDS011;8244;50.044;9.006;2023-02-15T10:39:42;31.03;;;17.93;;
16272;SDS011;8244;50.044;9.006;2023-02-15T10:44:58;31.10;;;18.30;;
16272;SDS011;8244;50.044;9.006;2023-02-15T10:50:20;29.63;;;16.90;;
16272;SDS011;8244;50.044;9.006;2023-02-15T10:55:34;31.10;;;16.93;;
16272;SDS011;8244;50.044;9.006;2023-02-15T11:00:49;29.73;;;17.27;;
16272;SDS011;8244;50.044;9.006;2023-02-15T11:06:01;30.33;;;17.53;;
16272;SDS011;8244;50.044;9.006;2023-02-15T11:11:06;27.00;;;16.70;;
16272;SDS011;8244;50.044;9.006;2023-02-15T11:16:12;31.37;;;18.03;;
16272;SDS011;8244;50.044;9.006;2023-02-15T11:21:17;26.70;;;16.40;;
16272;SDS011;8244;50.044;9.006;2023-02-15T11:26:24;26.50;;;16.77;;
16272;SDS011;8244;50.044;9.006;2023-02-15T11:31:34;29.17;;;17.10;;
16272;SDS011;8244;50.044;9.006;2023-02-15T11:36:43;30.23;;;17.80;;
16272;SDS011;8244;50.044;9.006;2023-02-15T11:41:49;27.87;;;17.80;;
16272;SDS011;8244;50.044;9.006;2023-02-15T11:46:55;27.43;;;16.83;;
16272;SDS011;8244;50.044;9.006;2023-02-15T11:51:57;26.40;;;16.50;;
16272;SDS011;8244;50.044;9.006;2023-02-15T11:57:03;25.27;;;15.57;;
16272;SDS011;8244;50.044;9.006;2023-02-15T12:02:15;30.70;;;17.95;;
16272;SDS011;8244;50.044;9.006;2023-02-15T12:07:19;30.83;;;18.33;;
16272;SDS011;8244;50.044;9.006;2023-02-15T12:12:26;27.55;;;17.50;;
16272;SDS011;8244;50.044;9.006;2023-02-15T12:17:30;26.48;;;16.55;;
16272;SDS011;8244;50.044;9.006;2023-02-15T12:22:35;24.95;;;15.82;;
16272;SDS011;8244;50.044;9.006;2023-02-15T12:27:38;26.65;;;16.30;;
16272;SDS011;8244;50.044;9.006;2023-02-15T12:32:48;23.17;;;15.35;;
16272;SDS011;8244;50.044;9.006;2023-02-15T12:37:54;25.45;;;15.65;;
16272;SDS011;8244;50.044;9.006;2023-02-15T12:42:57;29.10;;;18.33;;
16272;SDS011;8244;50.044;9.006;2023-02-15T12:48:13;25.48;;;15.85;;
16272;SDS011;8244;50.044;9.006;2023-02-15T12:53:17;29.65;;;18.92;;
16272;SDS011;8244;50.044;9.006;2023-02-15T12:58:23;26.58;;;16.45;;
16272;SDS011;8244;50.044;9.006;2023-02-15T13:03:27;28.90;;;16.25;;
16272;SDS011;8244;50.044;9.006;2023-02-15T13:08:30;26.17;;;16.33;;
16272;SDS011;8244;50.044;9.006;2023-02-15T13:13:35;24.35;;;15.98;;
16272;SDS011;8244;50.044;9.006;2023-02-15T13:18:42;26.48;;;16.30;;
16272;SDS011;8244;50.044;9.006;2023-02-15T13:23:46;22.77;;;15.57;;
16272;SDS011;8244;50.044;9.006;2023-02-15T13:28:54;23.35;;;15.68;;
16272;SDS011;8244;50.044;9.006;2023-02-15T13:34:00;24.40;;;16.58;;
16272;SDS011;8244;50.044;9.006;2023-02-15T13:39:12;25.20;;;15.98;;
16272;SDS011;8244;50.044;9.006;2023-02-15T13:44:24;27.02;;;17.00;;
16272;SDS011;8244;50.044;9.006;2023-02-15T13:49:50;29.38;;;19.77;;
16272;SDS011;8244;50.044;9.006;2023-02-15T14:00:28;24.42;;;16.30;;
16272;SDS011;8244;50.044;9.006;2023-02-15T14:05:41;25.42;;;16.45;;
16272;SDS011;8244;50.044;9.006;2023-02-15T14:10:56;24.13;;;15.18;;
16272;SDS011;8244;50.044;9.006;2023-02-15T14:16:05;25.35;;;16.27;;
16272;SDS011;8244;50.044;9.006;2023-02-15T14:21:15;24.23;;;15.77;;
16272;SDS011;8244;50.044;9.006;2023-02-15T14:26:21;23.58;;;15.45;;
16272;SDS011;8244;50.044;9.006;2023-02-15T14:31:34;25.45;;;15.07;;
16272;SDS011;8244;50.044;9.006;2023-02-15T14:36:41;25.23;;;16.50;;
16272;SDS011;8244;50.044;9.006;2023-02-15T14:41:44;23.48;;;15.23;;
16272;SDS011;8244;50.044;9.006;2023-02-15T14:46:54;27.40;;;15.55;;
16272;SDS011;8244;50.044;9.006;2023-02-15T14:52:02;24.95;;;15.65;;
16272;SDS011;8244;50.044;9.006;2023-02-15T14:57:23;25.08;;;15.07;;
16272;SDS011;8244;50.044;9.006;2023-02-15T15:02:39;24.35;;;15.13;;
16272;SDS011;8244;50.044;9.006;2023-02-15T15:07:44;23.08;;;15.55;;
16272;SDS011;8244;50.044;9.006;2023-02-15T15:12:48;23.65;;;15.77;;
16272;SDS011;8244;50.044;9.006;2023-02-15T15:17:52;23.77;;;15.85;;
16272;SDS011;8244;50.044;9.006;2023-02-15T15:50:56;25.05;;;15.90;;
16272;SDS011;8244;50.044;9.006;2023-02-15T15:56:01;27.13;;;17.20;;
16272;SDS011;8244;50.044;9.006;2023-02-15T16:01:09;28.50;;;17.93;;
16272;SDS011;8244;50.044;9.006;2023-02-15T16:06:13;34.13;;;20.33;;
16272;SDS011;8244;50.044;9.006;2023-02-15T16:11:16;31.83;;;19.57;;
16272;SDS011;8244;50.044;9.006;2023-02-15T16:16:24;38.77;;;21.70;;
16272;SDS011;8244;50.044;9.006;2023-02-15T16:21:29;35.87;;;21.87;;
16272;SDS011;8244;50.044;9.006;2023-02-15T16:32:02;35.43;;;20.93;;
16272;SDS011;8244;50.044;9.006;2023-02-15T16:37:13;41.23;;;21.43;;
16272;SDS011;8244;50.044;9.006;2023-02-15T16:42:18;40.90;;;22.23;;
16272;SDS011;8244;50.044;9.006;2023-02-15T16:47:23;41.10;;;22.67;;
16272;SDS011;8244;50.044;9.006;2023-02-15T16:52:27;38.40;;;21.80;;
16272;SDS011;8244;50.044;9.006;2023-02-15T16:57:35;40.97;;;21.87;;
16272;SDS011;8244;50.044;9.006;2023-02-15T17:02:40;42.83;;;21.93;;
16272;SDS011;8244;50.044;9.006;2023-02-15T17:08:04;45.53;;;22.53;;
16272;SDS011;8244;50.044;9.006;2023-02-15T17:13:13;43.60;;;22.63;;
16272;SDS011;8244;50.044;9.006;2023-02-15T17:18:17;41.20;;;23.03;;
16272;SDS011;8244;50.044;9.006;2023-02-15T17:23:21;46.37;;;24.10;;
16272;SDS011;8244;50.044;9.006;2023-02-15T17:28:27;43.30;;;22.87;;
16272;SDS011;8244;50.044;9.006;2023-02-15T17:33:36;47.23;;;24.57;;
16272;SDS011;8244;50.044;9.006;2023-02-15T17:38:39;51.07;;;24.60;;
16272;SDS011;8244;50.044;9.006;2023-02-15T17:43:59;44.73;;;22.67;;
16272;SDS011;8244;50.044;9.006;2023-02-15T17:49:03;47.53;;;24.03;;
16272;SDS011;8244;50.044;9.006;2023-02-15T17:54:07;48.10;;;23.63;;
16272;SDS011;8244;50.044;9.006;2023-02-15T17:59:28;51.10;;;25.57;;
16272;SDS011;8244;50.044;9.006;2023-02-15T18:04:31;56.40;;;26.83;;
16272;SDS011;8244;50.044;9.006;2023-02-15T18:09:51;50.23;;;25.80;;
16272;SDS011;8244;50.044;9.006;2023-02-15T18:15:11;52.97;;;28.17;;
16272;SDS011;8244;50.044;9.006;2023-02-15T18:20:17;38.97;;;21.47;;
16272;SDS011;8244;50.044;9.006;2023-02-15T18:25:21;60.17;;;32.23;;
16272;SDS011;8244;50.044;9.006;2023-02-15T18:30:24;54.27;;;28.67;;
16272;SDS011;8244;50.044;9.006;2023-02-15T18:35:28;54.20;;;27.27;;
16272;SDS011;8244;50.044;9.006;2023-02-15T18:40:32;59.77;;;30.00;;
16272;SDS011;8244;50.044;9.006;2023-02-15T18:45:33;54.17;;;28.43;;
16272;SDS011;8244;50.044;9.006;2023-02-15T18:50:37;53.47;;;26.33;;
16272;SDS011;8244;50.044;9.006;2023-02-15T18:55:39;57.17;;;28.33;;
16272;SDS011;8244;50.044;9.006;2023-02-15T19:00:41;53.47;;;27.73;;
16272;SDS011;8244;50.044;9.006;2023-02-15T19:05:45;48.77;;;24.90;;
16272;SDS011;8244;50.044;9.006;2023-02-15T19:10:49;47.10;;;25.13;;
16272;SDS011;8244;50.044;9.006;2023-02-15T19:15:51;42.20;;;23.00;;
16272;SDS011;8244;50.044;9.006;2023-02-15T19:20:54;48.63;;;23.67;;
16272;SDS011;8244;50.044;9.006;2023-02-15T19:25:56;45.47;;;22.47;;
16272;SDS011;8244;50.044;9.006;2023-02-15T19:30:57;40.47;;;22.07;;
16272;SDS011;8244;50.044;9.006;2023-02-15T19:36:00;41.67;;;20.73;;
16272;SDS011;8244;50.044;9.006;2023-02-15T19:41:04;39.07;;;22.10;;
16272;SDS011;8244;50.044;9.006;2023-02-15T19:46:08;38.80;;;22.07;;
16272;SDS011;8244;50.044;9.006;2023-02-15T19:51:16;48.27;;;24.87;;
16272;SDS011;8244;50.044;9.006;2023-02-15T19:56:19;50.40;;;26.53;;
16272;SDS011;8244;50.044;9.006;2023-02-15T20:01:23;51.67;;;26.00;;
16272;SDS011;8244;50.044;9.006;2023-02-15T20:06:26;52.77;;;26.37;;
16272;SDS011;8244;50.044;9.006;2023-02-15T20:11:28;58.07;;;28.23;;
16272;SDS011;8244;50.044;9.006;2023-02-15T20:16:29;59.50;;;29.80;;
16272;SDS011;8244;50.044;9.006;2023-02-15T20:21:32;55.97;;;28.73;;
16272;SDS011;8244;50.044;9.006;2023-02-15T20:26:35;67.97;;;28.50;;
16272;SDS011;8244;50.044;9.006;2023-02-15T20:31:36;64.97;;;29.17;;
16272;SDS011;8244;50.044;9.006;2023-02-15T20:36:39;64.87;;;28.40;;
16272;SDS011;8244;50.044;9.006;2023-02-15T20:41:41;60.53;;;28.40;;
16272;SDS011;8244;50.044;9.006;2023-02-15T20:46:47;56.97;;;27.83;;
16272;SDS011;8244;50.044;9.006;2023-02-15T20:51:51;55.53;;;28.10;;
16272;SDS011;8244;50.044;9.006;2023-02-15T20:56:53;51.90;;;26.10;;
16272;SDS011;8244;50.044;9.006;2023-02-15T21:01:56;43.43;;;23.63;;
16272;SDS011;8244;50.044;9.006;2023-02-15T21:07:01;43.23;;;21.70;;
16272;SDS011;8244;50.044;9.006;2023-02-15T21:12:03;42.60;;;21.53;;
16272;SDS011;8244;50.044;9.006;2023-02-15T21:17:08;41.33;;;22.50;;
16272;SDS011;8244;50.044;9.006;2023-02-15T21:22:12;41.23;;;22.73;;
16272;SDS011;8244;50.044;9.006;2023-02-15T21:27:15;42.90;;;24.13;;
16272;SDS011;8244;50.044;9.006;2023-02-15T21:32:17;49.83;;;26.70;;
16272;SDS011;8244;50.044;9.006;2023-02-15T21:37:27;41.20;;;23.67;;
16272;SDS011;8244;50.044;9.006;2023-02-15T21:42:32;43.80;;;23.67;;
16272;SDS011;8244;50.044;9.006;2023-02-15T21:47:51;43.00;;;24.43;;
16272;SDS011;8244;50.044;9.006;2023-02-15T21:52:54;40.13;;;22.93;;
16272;SDS011;8244;50.044;9.006;2023-02-15T21:57:57;42.83;;;22.73;;
16272;SDS011;8244;50.044;9.006;2023-02-15T22:02:59;40.27;;;22.77;;
16272;SDS011;8244;50.044;9.006;2023-02-15T22:08:04;36.37;;;21.27;;
16272;SDS011;8244;50.044;9.006;2023-02-15T22:13:12;38.37;;;22.37;;
16272;SDS011;8244;50.044;9.006;2023-02-15T22:18:17;43.83;;;22.60;;
16272;SDS011;8244;50.044;9.006;2023-02-15T22:23:22;42.17;;;23.67;;
16272;SDS011;8244;50.044;9.006;2023-02-15T22:28:25;38.10;;;22.10;;
16272;SDS011;8244;50.044;9.006;2023-02-15T22:33:33;42.40;;;23.73;;
16272;SDS011;8244;50.044;9.006;2023-02-15T22:38:36;44.63;;;24.97;;
16272;SDS011;8244;50.044;9.006;2023-02-15T22:43:38;46.27;;;24.67;;
16272;SDS011;8244;50.044;9.006;2023-02-15T22:48:42;46.90;;;24.67;;
16272;SDS011;8244;50.044;9.006;2023-02-15T22:53:45;43.60;;;24.00;;
16272;SDS011;8244;50.044;9.006;2023-02-15T22:58:48;43.93;;;24.60;;
16272;SDS011;8244;50.044;9.006;2023-02-15T23:03:50;44.17;;;23.07;;
16272;SDS011;8244;50.044;9.006;2023-02-15T23:08:53;40.83;;;22.63;;
16272;SDS011;8244;50.044;9.006;2023-02-15T23:13:57;45.23;;;24.13;;
16272;SDS011;8244;50.044;9.006;2023-02-15T23:18:59;44.43;;;24.03;;
16272;SDS011;8244;50.044;9.006;2023-02-15T23:24:14;51.03;;;25.23;;
16272;SDS011;8244;50.044;9.006;2023-02-15T23:29:19;48.57;;;24.97;;
16272;SDS011;8244;50.044;9.006;2023-02-15T23:34:23;52.80;;;26.90;;
16272;SDS011;8244;50.044;9.006;2023-02-15T23:39:29;50.73;;;25.97;;
16272;SDS011;8244;50.044;9.006;2023-02-15T23:44:48;55.07;;;28.53;;
16272;SDS011;8244;50.044;9.006;2023-02-15T23:49:50;51.97;;;26.60;;
16272;SDS011;8244;50.044;9.006;2023-02-15T23:54:53;54.80;;;27.20;;
16272;SDS011;8244;50.044;9.006;2023-02-15T23:59:54;53.57;;;27.93;;
